Time;durP1;ratioP1;P1;durP2;ratioP2;P2;SDS_P1;SDS_P2;PMS_P1;PMS_P2;Temp;Humidity;BMP_temperature;BMP_pressure;BME280_temperature;BME280_humidity;BME280_pressure;Samples;Min_cycle;Max_cycle;Signal;HPM_P1;HPM_P2
2021/03/18 00:00:52;;;;;;;15.55;4.65;;;;;;;2.38;100.00;102174.44;5060844;28;20478;-70
2021/03/18 00:03:22;;;;;;;15.30;5.22;;;;;;;2.35;100.00;102182.38;5068305;28;20041;-71
2021/03/18 00:05:48;;;;;;;9.93;4.55;;;;;;;2.29;100.00;102167.41;5057400;28;20044;-72
2021/03/18 00:08:14;;;;;;;17.63;5.47;;;;;;;2.27;100.00;102166.56;5062751;28;20058;-71
2021/03/18 00:10:40;;;;;;;8.82;5.05;;;;;;;2.25;100.00;102157.72;5077008;28;20055;-71
2021/03/18 00:13:07;;;;;;;18.63;5.40;;;;;;;2.22;100.00;102163.03;5083436;28;20379;-71
2021/03/18 00:15:33;;;;;;;13.15;5.72;;;;;;;2.19;100.00;102149.84;5070117;28;20044;-72
2021/03/18 00:17:59;;;;;;;13.40;5.00;;;;;;;2.23;100.00;102146.25;5068758;28;20542;-71
2021/03/18 00:20:25;;;;;;;8.40;4.57;;;;;;;2.20;100.00;102148.06;5064884;28;20045;-71
2021/03/18 00:22:50;;;;;;;14.10;5.38;;;;;;;2.14;100.00;102150.75;5110267;27;20040;-72
2021/03/18 00:25:17;;;;;;;9.35;4.75;;;;;;;2.13;100.00;102144.56;5075987;28;20431;-71
2021/03/18 00:27:45;;;;;;;9.32;5.05;;;;;;;2.14;100.00;102141.03;5066108;28;20037;-71
2021/03/18 00:30:12;;;;;;;11.98;5.63;;;;;;;2.14;100.00;102146.34;5065981;28;20052;-72
2021/03/18 00:32:39;;;;;;;10.13;5.05;;;;;;;2.10;100.00;102155.19;5069945;28;20039;-71
2021/03/18 00:35:07;;;;;;;22.45;5.30;;;;;;;2.09;100.00;102153.44;5066406;28;20540;-71
2021/03/18 00:37:34;;;;;;;14.40;5.28;;;;;;;2.07;100.00;102144.63;5070096;28;20451;-71
2021/03/18 00:40:00;;;;;;;15.82;6.38;;;;;;;2.03;100.00;102164.97;5067053;28;20426;-71
2021/03/18 00:42:27;;;;;;;14.13;5.93;;;;;;;2.06;100.00;102164.03;5068263;28;20028;-71
2021/03/18 00:44:53;;;;;;;13.88;5.20;;;;;;;2.05;100.00;102162.28;5068400;28;20031;-71
2021/03/18 00:47:19;;;;;;;14.15;6.68;;;;;;;1.95;100.00;102156.19;5068609;28;20028;-71
2021/03/18 00:49:45;;;;;;;9.95;5.22;;;;;;;1.92;100.00;102160.59;5067643;28;20089;-72
2021/03/18 00:52:11;;;;;;;10.75;4.70;;;;;;;1.87;100.00;102157.09;5064056;28;20021;-72
2021/03/18 00:54:37;;;;;;;14.75;5.65;;;;;;;1.85;100.00;102153.59;5066739;28;20039;-71
2021/03/18 00:57:04;;;;;;;10.88;6.15;;;;;;;1.85;100.00;102158.88;5068196;28;20111;-71
2021/03/18 00:59:29;;;;;;;12.45;6.75;;;;;;;1.85;100.00;102154.44;5070446;28;20107;-71
2021/03/18 01:01:55;;;;;;;11.50;5.60;;;;;;;1.82;100.00;102162.41;5076004;28;20599;-71
2021/03/18 01:04:20;;;;;;;13.43;6.57;;;;;;;1.82;100.00;102169.47;5068415;28;20119;-71
2021/03/18 01:06:46;;;;;;;16.67;5.57;;;;;;;1.79;100.00;102170.38;5070655;28;20050;-71
2021/03/18 01:09:12;;;;;;;11.40;5.25;;;;;;;1.81;100.00;102176.53;5071360;28;20506;-70
2021/03/18 01:11:39;;;;;;;12.85;5.95;;;;;;;1.77;100.00;102182.75;5069173;28;20032;-71
2021/03/18 01:14:07;;;;;;;15.07;5.80;;;;;;;1.79;100.00;102185.41;5052740;28;20032;-71
2021/03/18 01:16:49;;;;;;;18.40;6.40;;;;;;;1.81;100.00;102179.19;5068196;28;20090;-72
2021/03/18 01:19:15;;;;;;;13.63;5.97;;;;;;;1.74;100.00;102177.44;5067330;28;20029;-71
2021/03/18 01:21:44;;;;;;;15.45;5.75;;;;;;;1.70;100.00;102166.91;5072612;28;20075;-71
2021/03/18 01:24:11;;;;;;;13.35;6.13;;;;;;;1.67;100.00;102161.63;5067068;28;20051;-72
2021/03/18 01:26:37;;;;;;;14.23;5.57;;;;;;;1.67;100.00;102166.94;5074368;28;20040;-71
2021/03/18 01:29:04;;;;;;;13.98;5.35;;;;;;;1.66;100.00;102162.50;5062450;28;20101;-71
2021/03/18 01:31:29;;;;;;;10.25;5.47;;;;;;;1.59;100.00;102161.66;5070206;28;20024;-71
2021/03/18 01:33:55;;;;;;;11.15;5.78;;;;;;;1.56;100.00;102162.53;5069013;28;20079;-71
2021/03/18 01:36:22;;;;;;;11.57;5.47;;;;;;;1.55;100.00;102151.94;5069014;28;20058;-71
2021/03/18 01:38:47;;;;;;;12.20;5.88;;;;;;;1.52;100.00;102166.09;5067997;28;20029;-71
2021/03/18 01:41:18;;;;;;;12.70;5.10;;;;;;;1.50;100.00;102159.03;5073119;28;20044;-71
2021/03/18 01:43:44;;;;;;;12.68;5.80;;;;;;;1.48;100.00;102163.47;5049389;28;20048;-71
2021/03/18 01:46:11;;;;;;;9.95;5.43;;;;;;;1.46;100.00;102171.41;5066739;28;20048;-71
2021/03/18 01:48:37;;;;;;;14.32;6.05;;;;;;;1.46;100.00;102182.00;5069612;28;20500;-71
2021/03/18 01:51:04;;;;;;;12.15;6.28;;;;;;;1.56;100.00;102166.94;5070329;28;20036;-71
2021/03/18 01:53:30;;;;;;;11.82;6.22;;;;;;;1.46;100.00;102166.13;5072812;28;20032;-71
2021/03/18 01:56:02;;;;;;;12.60;6.07;;;;;;;1.53;100.00;102167.88;5069370;28;20028;-71
2021/03/18 01:58:28;;;;;;;19.75;6.47;;;;;;;1.55;100.00;102171.34;5065160;28;20453;-70
2021/03/18 02:00:57;;;;;;;13.07;6.40;;;;;;;1.60;100.00;102174.88;5070695;28;20079;-71
2021/03/18 02:03:23;;;;;;;18.10;6.90;;;;;;;1.62;100.00;102172.22;5073203;28;20060;-71
2021/03/18 02:05:50;;;;;;;15.77;6.88;;;;;;;1.52;100.00;102166.09;5056146;28;20056;-71
2021/03/18 02:08:16;;;;;;;22.13;7.97;;;;;;;1.52;100.00;102171.41;5066612;28;20577;-71
2021/03/18 02:10:42;;;;;;;20.90;7.30;;;;;;;1.58;100.00;102165.19;5069040;28;20082;-71
2021/03/18 02:13:10;;;;;;;21.08;7.82;;;;;;;1.51;100.00;102164.34;5069244;28;20664;-71
2021/03/18 02:15:56;;;;;;;15.75;7.53;;;;;;;1.46;100.00;102160.84;5069135;28;20044;-71
2021/03/18 02:18:47;;;;;;;23.13;7.68;;;;;;;1.53;100.00;102161.69;5065461;28;20037;-71
2021/03/18 02:21:37;;;;;;;18.33;7.40;;;;;;;1.50;100.00;102151.09;5064153;28;20028;-71
2021/03/18 02:24:12;;;;;;;12.77;7.30;;;;;;;1.46;100.00;102144.97;5066952;28;20064;-71
2021/03/18 02:26:37;;;;;;;17.13;7.30;;;;;;;1.47;100.00;102141.44;5070675;28;20109;-71
2021/03/18 02:29:40;;;;;;;18.73;6.85;;;;;;;1.45;100.00;102137.00;5062042;28;20064;-70
2021/03/18 02:32:43;;;;;;;21.60;7.63;;;;;;;1.44;100.00;102138.78;5058833;28;20119;-71
2021/03/18 02:35:18;;;;;;;15.68;7.82;;;;;;;1.41;100.00;102133.53;5067314;28;20040;-71
2021/03/18 02:37:55;;;;;;;14.30;7.22;;;;;;;1.34;100.00;102137.06;5066464;28;20040;-71
2021/03/18 02:40:22;;;;;;;16.77;7.43;;;;;;;1.34;100.00;102131.78;5068184;28;20115;-71
2021/03/18 02:42:54;;;;;;;26.20;8.25;;;;;;;1.35;100.00;102133.53;5066319;28;20056;-71
2021/03/18 02:45:21;;;;;;;19.02;7.88;;;;;;;1.33;100.00;102132.66;5066520;28;20146;-70
2021/03/18 02:47:52;;;;;;;18.90;7.80;;;;;;;1.34;100.00;102118.56;5066930;28;20033;-71
2021/03/18 02:50:19;;;;;;;20.42;8.10;;;;;;;1.29;100.00;102115.06;5072436;28;20021;-71
2021/03/18 02:52:46;;;;;;;18.45;8.55;;;;;;;1.30;100.00;102118.56;5054172;28;20066;-71
2021/03/18 02:55:12;;;;;;;13.70;7.60;;;;;;;1.32;100.00;102112.38;5067068;28;20115;-71
2021/03/18 02:57:41;;;;;;;16.95;7.75;;;;;;;1.38;100.00;102114.13;5069218;28;20060;-70
2021/03/18 03:00:09;;;;;;;20.13;7.95;;;;;;;1.38;100.00;102112.34;5067881;28;20071;-71
2021/03/18 03:02:36;;;;;;;15.27;7.13;;;;;;;1.36;100.00;102106.19;5077826;28;20114;-71
2021/03/18 03:05:04;;;;;;;18.15;7.07;;;;;;;1.32;100.00;102111.50;5068008;28;20032;-70
2021/03/18 03:07:30;;;;;;;20.35;8.32;;;;;;;1.37;100.00;102113.22;5052847;28;20060;-71
2021/03/18 03:09:59;;;;;;;12.50;7.38;;;;;;;1.33;100.00;102100.91;5071864;28;20386;-70
2021/03/18 03:12:27;;;;;;;24.13;8.32;;;;;;;1.38;100.00;102099.13;5069301;28;20028;-70
2021/03/18 03:14:54;;;;;;;19.98;7.90;;;;;;;1.31;100.00;102101.78;5065639;28;20152;-71
2021/03/18 03:17:23;;;;;;;13.95;7.85;;;;;;;1.30;100.00;102106.19;5067652;28;20422;-71
2021/03/18 03:19:50;;;;;;;19.55;8.25;;;;;;;1.26;100.00;102104.47;5065161;28;20071;-71
2021/03/18 03:22:16;;;;;;;24.33;8.60;;;;;;;1.25;100.00;102107.09;5070911;28;20086;-71
2021/03/18 03:24:44;;;;;;;25.25;8.35;;;;;;;1.23;100.00;102114.19;5048837;28;20437;-71
2021/03/18 03:27:10;;;;;;;24.08;7.32;;;;;;;1.22;100.00;102118.59;5065539;28;20459;-71
2021/03/18 03:29:39;;;;;;;19.88;7.47;;;;;;;1.22;100.00;102115.97;5065308;28;20028;-71
2021/03/18 03:32:07;;;;;;;15.32;7.97;;;;;;;1.19;100.00;102121.25;5073502;28;20028;-71
2021/03/18 03:34:32;;;;;;;21.33;8.13;;;;;;;1.17;100.00;102109.81;5066530;28;20036;-71
2021/03/18 03:36:59;;;;;;;15.32;7.72;;;;;;;1.16;100.00;102116.84;5068475;28;20062;-71
2021/03/18 03:39:24;;;;;;;14.90;8.18;;;;;;;1.14;100.00;102115.09;5063733;28;20500;-71
2021/03/18 03:41:49;;;;;;;15.30;8.23;;;;;;;1.11;100.00;102107.19;5063738;28;20028;-71
2021/03/18 03:44:15;;;;;;;18.88;8.48;;;;;;;1.11;100.00;102102.75;5067730;28;20115;-71
2021/03/18 03:46:41;;;;;;;16.60;8.20;;;;;;;1.08;100.00;102109.81;5067619;28;20036;-71
2021/03/18 03:49:09;;;;;;;18.92;8.32;;;;;;;1.09;100.00;102117.75;5070545;28;20649;-71
2021/03/18 03:52:11;;;;;;;17.83;7.88;;;;;;;1.10;100.00;102119.53;5068165;28;20047;-70
2021/03/18 03:54:48;;;;;;;15.40;9.13;;;;;;;1.14;100.00;102120.38;5073251;28;20501;-71
2021/03/18 03:57:25;;;;;;;18.00;8.43;;;;;;;1.17;100.00;102128.31;5062716;28;20028;-71
2021/03/18 03:59:56;;;;;;;18.52;8.63;;;;;;;1.19;100.00;102134.47;5070415;28;20036;-71
2021/03/18 04:02:23;;;;;;;28.80;9.38;;;;;;;1.24;100.00;102140.63;5073950;28;20036;-70
2021/03/18 04:04:50;;;;;;;20.42;9.60;;;;;;;1.27;100.00;102134.44;5068857;28;20055;-71
2021/03/18 04:07:22;;;;;;;24.65;10.18;;;;;;;1.41;100.00;102136.16;5069311;28;20067;-71
2021/03/18 04:09:49;;;;;;;20.40;9.32;;;;;;;1.47;100.00;102140.53;5069972;28;20041;-71
2021/03/18 04:12:18;;;;;;;23.27;9.23;;;;;;;1.46;100.00;102134.38;5068197;28;20033;-71
2021/03/18 04:14:48;;;;;;;15.88;9.38;;;;;;;1.48;100.00;102139.66;5074899;28;20059;-71
2021/03/18 04:17:17;;;;;;;22.13;9.40;;;;;;;1.47;100.00;102130.84;5065980;28;20563;-71
2021/03/18 04:19:47;;;;;;;18.33;9.80;;;;;;;1.51;100.00;102132.56;5069340;28;20111;-71
2021/03/18 04:22:14;;;;;;;24.58;10.73;;;;;;;1.48;100.00;102137.88;5070414;28;20112;-71
2021/03/18 04:24:40;;;;;;;20.13;10.43;;;;;;;1.51;100.00;102139.63;5071709;28;20032;-70
2021/03/18 04:27:07;;;;;;;30.38;10.30;;;;;;;1.54;100.00;102140.50;5078867;28;20036;-71
2021/03/18 04:29:33;;;;;;;28.88;10.65;;;;;;;1.51;100.00;102127.28;5066606;28;20028;-70
2021/03/18 04:32:01;;;;;;;21.25;9.93;;;;;;;1.50;100.00;102128.16;5076625;28;20063;-71
2021/03/18 04:34:28;;;;;;;34.20;14.93;;;;;;;1.49;100.00;102121.13;5073461;28;22411;-71
2021/03/18 04:36:54;;;;;;;25.48;11.48;;;;;;;1.54;100.00;102115.81;5067454;28;20043;-71
2021/03/18 04:39:20;;;;;;;21.45;11.35;;;;;;;1.54;100.00;102116.66;5068591;28;20416;-70
2021/03/18 04:41:46;;;;;;;23.98;10.75;;;;;;;1.53;100.00;102120.22;5068633;28;20044;-71
2021/03/18 04:44:14;;;;;;;25.40;10.80;;;;;;;1.62;100.00;102114.88;5069186;28;20043;-71
2021/03/18 04:46:42;;;;;;;21.40;9.85;;;;;;;1.63;100.00;102116.63;5076099;28;20036;-71
2021/03/18 04:49:09;;;;;;;22.58;10.18;;;;;;;1.56;100.00;102112.25;5070014;28;20440;-71
2021/03/18 04:51:35;;;;;;;22.85;9.80;;;;;;;1.53;100.00;102112.28;5067339;28;20029;-71
2021/03/18 04:54:02;;;;;;;27.33;11.75;;;;;;;1.47;100.00;102104.38;5072189;28;20498;-71
2021/03/18 04:56:28;;;;;;;59.03;19.75;;;;;;;1.46;100.00;102105.28;5069564;28;20036;-71
2021/03/18 04:58:56;;;;;;;78.18;23.63;;;;;;;1.48;100.00;102111.41;5067649;28;20577;-71
2021/03/18 05:01:27;;;;;;;152.60;43.65;;;;;;;1.43;100.00;102107.03;5065022;28;20036;-71
2021/03/18 05:03:52;;;;;;;173.90;49.58;;;;;;;1.39;100.00;102106.19;5074511;28;20037;-71
2021/03/18 05:06:21;;;;;;;106.32;30.10;;;;;;;1.42;100.00;102106.16;5071208;28;20360;-71
2021/03/18 05:08:47;;;;;;;45.53;17.05;;;;;;;1.46;100.00;102102.63;5068955;28;20043;-71
2021/03/18 05:11:17;;;;;;;175.93;41.83;;;;;;;1.44;100.00;102098.22;5073055;22;20076;-75
2021/03/18 05:13:45;;;;;;;185.13;43.83;;;;;;;1.38;100.00;102093.84;5064658;28;20044;-75
2021/03/18 05:16:14;;;;;;;244.00;54.88;;;;;;;1.37;100.00;102092.06;5031927;28;20028;-75
2021/03/18 05:18:40;;;;;;;307.85;64.38;;;;;;;1.37;100.00;102097.34;5047102;28;20064;-75
2021/03/18 05:21:09;;;;;;;203.43;46.65;;;;;;;1.35;100.00;102083.28;5064272;28;20029;-75
2021/03/18 05:23:36;;;;;;;123.75;33.25;;;;;;;1.35;100.00;102088.56;5030919;28;20171;-75
2021/03/18 05:26:04;;;;;;;75.68;22.63;;;;;;;1.34;100.00;102078.88;5036005;23;20045;-76
2021/03/18 05:28:29;;;;;;;47.95;15.65;;;;;;;1.33;100.00;102071.81;5016843;28;20044;-77
2021/03/18 05:30:55;;;;;;;29.15;12.95;;;;;;;1.33;100.00;102079.75;5012826;28;20037;-77
2021/03/18 05:33:21;;;;;;;22.35;10.73;;;;;;;1.33;100.00;102078.88;5009374;28;20030;-76
2021/03/18 05:35:46;;;;;;;27.60;10.13;;;;;;;1.31;100.00;102075.34;5027691;28;20068;-77
2021/03/18 05:38:14;;;;;;;31.65;9.95;;;;;;;1.30;100.00;102085.03;5010511;28;20076;-77
2021/03/18 05:40:41;;;;;;;24.75;10.23;;;;;;;1.31;100.00;102080.63;4999327;28;20042;-77
2021/03/18 05:43:07;;;;;;;17.88;9.88;;;;;;;1.30;100.00;102077.09;5008048;28;20087;-77
2021/03/18 05:45:34;;;;;;;26.98;10.02;;;;;;;1.30;100.00;102085.03;5020016;28;20021;-76
2021/03/18 05:48:00;;;;;;;24.02;11.48;;;;;;;1.30;100.00;102077.09;5009317;28;20112;-77
2021/03/18 05:50:26;;;;;;;20.77;9.70;;;;;;;1.30;100.00;102077.09;5009293;28;20084;-77
2021/03/18 05:52:53;;;;;;;23.65;11.18;;;;;;;1.31;100.00;102076.22;4987604;28;20497;-77
2021/03/18 05:55:21;;;;;;;25.08;11.35;;;;;;;1.32;100.00;102072.69;5009267;28;20022;-77
2021/03/18 05:57:49;;;;;;;26.88;12.30;;;;;;;1.34;100.00;102068.28;5012361;28;20112;-77
2021/03/18 06:00:15;;;;;;;25.00;10.35;;;;;;;1.35;100.00;102072.69;4989533;28;20038;-77
2021/03/18 06:02:47;;;;;;;23.55;10.77;;;;;;;1.36;100.00;102069.13;5003269;28;20038;-77
2021/03/18 06:05:14;;;;;;;23.75;10.43;;;;;;;1.40;100.00;102064.72;4995213;28;20068;-77
2021/03/18 06:07:42;;;;;;;27.08;12.07;;;;;;;1.40;100.00;102062.09;4998686;28;20034;-77
2021/03/18 06:10:14;;;;;;;19.35;10.43;;;;;;;1.42;100.00;102069.09;5025381;28;20087;-78
2021/03/18 06:12:41;;;;;;;28.45;13.13;;;;;;;1.48;100.00;102061.13;5015661;28;20044;-78
2021/03/18 06:15:09;;;;;;;28.65;12.23;;;;;;;1.56;100.00;102066.38;5025655;28;20033;-78
2021/03/18 06:17:36;;;;;;;33.30;15.43;;;;;;;1.49;100.00;102065.53;4993713;28;20048;-77
2021/03/18 06:20:03;;;;;;;29.17;13.25;;;;;;;1.51;100.00;102063.78;5026437;28;20039;-78
2021/03/18 06:22:38;;;;;;;23.77;12.23;;;;;;;1.53;100.00;102061.13;5010052;28;20462;-77
2021/03/18 06:25:07;;;;;;;25.45;12.43;;;;;;;1.62;100.00;102055.78;5015516;28;20033;-78
2021/03/18 06:27:32;;;;;;;24.70;12.63;;;;;;;1.61;100.00;102057.53;4999450;28;20091;-78
2021/03/18 06:29:58;;;;;;;30.75;13.27;;;;;;;1.61;100.00;102049.59;4992285;28;20029;-77
2021/03/18 06:32:26;;;;;;;28.92;13.70;;;;;;;1.65;100.00;102055.75;5025919;28;20060;-78
2021/03/18 06:34:53;;;;;;;31.08;14.93;;;;;;;1.67;100.00;102063.72;5009408;28;20114;-78
2021/03/18 06:37:36;;;;;;;30.13;13.65;;;;;;;1.83;100.00;102050.34;4995206;28;20116;-78
2021/03/18 06:40:15;;;;;;;27.38;12.60;;;;;;;1.91;100.00;102047.66;5026023;28;20300;-78
2021/03/18 06:42:51;;;;;;;28.33;12.60;;;;;;;2.00;100.00;102047.56;4993182;28;20033;-77
2021/03/18 06:45:17;;;;;;;27.40;12.45;;;;;;;1.94;100.00;102060.84;4993168;28;20061;-78
2021/03/18 06:47:45;;;;;;;27.60;12.93;;;;;;;1.86;100.00;102049.41;5027044;28;20057;-78
2021/03/18 06:50:14;;;;;;;28.15;13.02;;;;;;;1.87;100.00;102049.41;4993702;28;20029;-78
2021/03/18 06:52:40;;;;;;;38.72;15.85;;;;;;;1.81;100.00;102046.81;5026732;28;20611;-78
2021/03/18 06:55:09;;;;;;;37.47;13.55;;;;;;;1.89;100.00;102044.13;5010902;28;20029;-78
2021/03/18 06:57:35;;;;;;;33.58;13.52;;;;;;;1.86;100.00;102045.00;5029744;28;20170;-77
2021/03/18 07:00:03;;;;;;;32.95;13.25;;;;;;;1.92;100.00;102039.66;5010448;28;20394;-77
2021/03/18 07:02:28;;;;;;;36.42;12.90;;;;;;;1.96;100.00;102044.06;5007717;28;20040;-77
2021/03/18 07:04:55;;;;;;;29.45;12.68;;;;;;;1.94;100.00;102043.19;4995171;28;20025;-77
2021/03/18 07:07:25;;;;;;;25.48;13.75;;;;;;;1.94;100.00;102037.03;4994139;28;20441;-78
2021/03/18 07:09:54;;;;;;;27.77;13.35;;;;;;;2.00;100.00;102043.16;4991230;28;20517;-78
2021/03/18 07:12:29;;;;;;;35.83;14.48;;;;;;;2.03;100.00;102047.56;4988800;28;20099;-79
2021/03/18 07:14:58;;;;;;;24.85;12.57;;;;;;;2.06;100.00;102052.81;5009692;28;20048;-78
2021/03/18 07:17:31;;;;;;;30.67;13.05;;;;;;;2.18;100.00;102036.81;5006749;28;20048;-78
2021/03/18 07:20:17;;;;;;;27.67;13.15;;;;;;;2.32;100.00;102036.69;5026701;28;20026;-78
2021/03/18 07:22:51;;;;;;;24.23;12.65;;;;;;;2.53;100.00;102030.31;5003247;28;20033;-78
2021/03/18 07:25:19;;;;;;;32.50;13.38;;;;;;;2.56;100.00;102027.63;4990654;28;20033;-77
2021/03/18 07:27:47;;;;;;;33.42;15.60;;;;;;;2.57;100.00;102022.31;5026909;28;20505;-79
2021/03/18 07:30:37;;;;;;;29.92;13.20;;;;;;;2.71;100.00;102022.16;5027462;28;20029;-77
2021/03/18 07:33:03;;;;;;;25.98;12.65;;;;;;;2.81;100.00;102013.19;4980809;28;20533;-78
2021/03/18 07:35:29;;;;;;;25.80;12.32;;;;;;;2.96;100.00;102026.28;5011412;28;20026;-77
2021/03/18 07:37:56;;;;;;;33.55;13.68;;;;;;;3.17;100.00;102023.34;4996812;28;20079;-78
2021/03/18 07:40:23;;;;;;;30.60;12.00;;;;;;;3.42;100.00;102023.88;4997688;28;20091;-78
2021/03/18 07:42:50;;;;;;;25.15;12.10;;;;;;;3.59;100.00;102024.53;4995359;28;20037;-78
2021/03/18 07:45:18;;;;;;;22.73;11.10;;;;;;;3.74;100.00;102035.81;5015474;28;20034;-78
2021/03/18 07:47:45;;;;;;;24.23;10.40;;;;;;;3.80;100.00;102033.94;5024625;28;20046;-78
2021/03/18 07:50:12;;;;;;;19.17;10.82;;;;;;;3.84;100.00;102037.41;5011823;28;20061;-78
2021/03/18 07:52:42;;;;;;;31.25;10.30;;;;;;;3.89;100.00;102039.09;5017011;28;20430;-78
2021/03/18 07:55:09;;;;;;;23.80;10.20;;;;;;;3.86;100.00;102036.50;5026167;28;20032;-79
2021/03/18 07:57:52;;;;;;;25.80;10.88;;;;;;;3.89;100.00;102031.13;5028958;28;20038;-79
2021/03/18 08:00:23;;;;;;;29.95;11.48;;;;;;;3.98;100.00;102027.47;5016240;28;20422;-79
2021/03/18 08:02:50;;;;;;;25.13;10.88;;;;;;;4.06;100.00;102034.41;5002066;28;20034;-79
2021/03/18 08:05:35;;;;;;;18.00;10.13;;;;;;;3.93;100.00;102032.84;5004213;28;20478;-79
2021/03/18 08:08:01;;;;;;;23.63;10.07;;;;;;;3.95;100.00;102025.72;5006832;28;20650;-80
2021/03/18 08:10:26;;;;;;;20.27;9.73;;;;;;;3.94;100.00;102026.66;5007107;28;20102;-80
2021/03/18 08:13:05;;;;;;;22.08;9.68;;;;;;;3.97;100.00;102031.00;5029745;28;20058;-80
2021/03/18 08:15:38;;;;;;;21.73;11.02;;;;;;;4.17;100.00;102031.56;5034464;28;20028;-81
2021/03/18 08:18:13;;;;;;;22.58;9.93;;;;;;;4.10;100.00;102023.72;5043314;28;20418;-82
2021/03/18 08:20:42;;;;;;;21.98;10.32;;;;;;;4.12;100.00;102022.81;5011724;28;20045;-80
2021/03/18 08:23:23;;;;;;;26.77;10.45;;;;;;;4.20;100.00;102030.63;5052610;28;20033;-79
2021/03/18 08:25:55;;;;;;;26.30;10.10;;;;;;;4.21;100.00;102032.38;5037550;28;20037;-80
2021/03/18 08:28:58;;;;;;;25.70;9.60;;;;;;;4.29;100.00;102026.03;5031047;28;20030;-80
2021/03/18 08:31:42;;;;;;;28.90;9.93;;;;;;;4.57;100.00;102037.03;5019887;28;20033;-79
2021/03/18 08:34:08;;;;;;;26.88;9.50;;;;;;;4.70;100.00;102027.94;5029590;28;20044;-81
2021/03/18 08:36:36;;;;;;;21.75;9.73;;;;;;;4.70;100.00;102035.91;5009010;28;20047;-81
2021/03/18 08:39:33;;;;;;;19.38;9.68;;;;;;;4.78;100.00;102026.00;5009492;28;20056;-80
2021/03/18 08:41:58;;;;;;;24.88;9.73;;;;;;;4.72;100.00;102023.47;5024903;28;20041;-80
2021/03/18 08:44:42;;;;;;;22.63;9.73;;;;;;;4.77;100.00;102034.88;5022945;28;20029;-80
2021/03/18 08:47:10;;;;;;;;;;;;;;;4.85;100.00;102032.09;5010250;28;20030;-81
2021/03/18 08:49:39;;;;;;;24.20;8.57;;;;;;;5.01;100.00;102037.97;5027904;28;20683;-80
2021/03/18 08:52:10;;;;;;;20.08;9.05;;;;;;;5.07;100.00;102043.16;5051152;28;20037;-80
2021/03/18 08:54:36;;;;;;;23.15;8.32;;;;;;;5.04;100.00;102043.22;5028267;28;20533;-80
2021/03/18 08:57:01;;;;;;;23.45;9.10;;;;;;;5.18;99.44;102043.84;5044739;28;20041;-81
2021/03/18 08:59:27;;;;;;;23.55;10.13;;;;;;;5.31;100.00;102047.97;5024046;28;20095;-80
2021/03/18 09:02:09;;;;;;;20.73;7.72;;;;;;;5.25;99.72;102037.44;5033460;28;20026;-79
2021/03/18 09:04:43;;;;;;;19.38;7.45;;;;;;;5.30;100.00;102040.91;5018943;28;20034;-80
2021/03/18 09:07:13;;;;;;;25.23;8.52;;;;;;;5.46;99.76;102041.44;5011365;28;20107;-79
2021/03/18 09:09:41;;;;;;;21.20;7.47;;;;;;;5.56;99.66;102043.84;5037702;28;20105;-80
2021/03/18 09:12:07;;;;;;;16.15;7.03;;;;;;;5.61;98.21;102039.31;5009760;28;20029;-81
2021/03/18 09:14:37;;;;;;;18.70;7.70;;;;;;;5.60;96.91;102053.56;5025498;28;20474;-81
2021/03/18 09:17:02;;;;;;;22.23;7.20;;;;;;;5.53;97.39;102049.28;5008421;28;20045;-79
2021/03/18 09:19:28;;;;;;;19.98;7.70;;;;;;;5.51;98.45;102051.09;5028130;28;20112;-80
2021/03/18 09:21:53;;;;;;;20.55;7.72;;;;;;;5.61;97.71;102052.66;5015288;28;20037;-80
2021/03/18 09:24:19;;;;;;;16.10;7.18;;;;;;;5.64;97.09;102063.22;5025491;28;20047;-80
2021/03/18 09:26:44;;;;;;;15.45;7.03;;;;;;;5.67;96.58;102048.97;5027999;28;20060;-81
2021/03/18 09:29:10;;;;;;;17.67;7.13;;;;;;;5.69;95.44;102055.13;5008324;28;20059;-81
2021/03/18 09:31:36;;;;;;;14.43;7.63;;;;;;;5.59;95.01;102061.56;5045155;28;20045;-80
2021/03/18 09:34:02;;;;;;;25.08;8.27;;;;;;;5.53;95.72;102051.94;5025805;28;20033;-80
2021/03/18 09:36:30;;;;;;;18.77;7.03;;;;;;;5.61;95.86;102049.09;5033475;28;20673;-79
2021/03/18 09:39:09;;;;;;;16.08;6.95;;;;;;;5.67;96.38;102051.63;5010775;28;20055;-80
2021/03/18 09:41:39;;;;;;;14.20;7.25;;;;;;;5.53;95.73;102043.94;5013306;28;20033;-81
2021/03/18 09:44:22;;;;;;;19.58;6.88;;;;;;;5.59;94.98;102040.25;5003719;28;20030;-80
2021/03/18 09:46:51;;;;;;;26.23;7.18;;;;;;;5.60;94.50;102034.03;5007011;28;20041;-80
2021/03/18 09:49:32;;;;;;;16.98;7.22;;;;;;;5.51;94.47;102035.09;5030185;28;20014;-80
2021/03/18 09:51:59;;;;;;;9.15;5.90;;;;;;;5.53;94.86;102027.97;5032879;28;20086;-78
2021/03/18 09:54:26;;;;;;;18.83;6.32;;;;;;;5.59;94.82;102033.16;5006091;28;20039;-79
2021/03/18 09:56:52;;;;;;;14.05;6.22;;;;;;;5.63;94.27;102032.16;5003882;28;20080;-80
2021/03/18 09:59:23;;;;;;;19.75;6.22;;;;;;;5.68;94.00;102030.25;5021647;28;20029;-79
2021/03/18 10:01:49;;;;;;;14.27;6.75;;;;;;;5.78;94.24;102032.72;5019776;28;20044;-78
2021/03/18 10:04:17;;;;;;;8.73;6.15;;;;;;;5.68;93.46;102032.91;5022154;28;20035;-79
2021/03/18 10:06:52;;;;;;;12.15;5.47;;;;;;;5.69;94.13;102032.00;5009259;28;20025;-79
2021/03/18 10:09:33;;;;;;;15.68;7.43;;;;;;;5.68;93.82;102030.25;5021520;28;20037;-79
2021/03/18 10:12:01;;;;;;;16.95;5.70;;;;;;;5.83;93.22;102028.16;5005749;28;20057;-78
2021/03/18 10:14:35;;;;;;;17.80;7.10;;;;;;;5.96;92.42;102019.00;5042966;28;20029;-80
2021/03/18 10:17:04;;;;;;;13.35;6.43;;;;;;;6.02;92.72;102018.84;5041652;28;20073;-80
2021/03/18 10:19:32;;;;;;;18.73;6.32;;;;;;;6.04;92.66;102007.22;5008876;28;20038;-80
2021/03/18 10:22:08;;;;;;;11.52;7.10;;;;;;;6.07;92.71;102008.94;5032032;28;20048;-80
2021/03/18 10:24:35;;;;;;;13.43;6.53;;;;;;;6.26;91.03;102012.88;4999027;28;20037;-79
2021/03/18 10:27:15;;;;;;;18.13;7.50;;;;;;;6.42;89.30;102010.69;5000249;28;20526;-80
2021/03/18 10:29:42;;;;;;;14.80;7.18;;;;;;;6.46;87.47;102002.56;5011166;28;20058;-80
2021/03/18 10:32:19;;;;;;;16.42;7.72;;;;;;;6.48;87.87;102011.38;5014157;28;20084;-80
2021/03/18 10:34:55;;;;;;;14.05;7.78;;;;;;;6.55;86.99;102003.22;5004974;28;20033;-79
2021/03/18 10:37:25;;;;;;;18.60;9.40;;;;;;;6.56;86.93;102003.19;5009355;28;20052;-80
2021/03/18 10:40:06;;;;;;;23.95;10.65;;;;;;;6.66;86.18;101998.50;5018406;28;20068;-80
2021/03/18 10:42:31;;;;;;;23.58;10.88;;;;;;;6.81;85.99;101993.59;5019520;28;20609;-80
2021/03/18 10:44:57;;;;;;;32.83;12.68;;;;;;;7.15;86.40;101992.63;5035557;28;20022;-78
2021/03/18 10:47:22;;;;;;;32.38;13.15;;;;;;;7.27;85.46;101993.13;5019173;28;20056;-80
2021/03/18 10:50:08;;;;;;;24.58;12.68;;;;;;;7.40;82.23;101998.09;5010072;28;20034;-79
2021/03/18 10:52:34;;;;;;;25.40;11.35;;;;;;;7.55;83.30;101987.78;5006240;28;20072;-80
2021/03/18 10:54:59;;;;;;;20.00;10.93;;;;;;;7.67;82.31;101989.19;5017420;28;20036;-79
2021/03/18 10:57:28;;;;;;;22.10;10.52;;;;;;;7.59;80.58;101994.75;5037268;28;20068;-79
2021/03/18 10:59:58;;;;;;;20.50;10.80;;;;;;;7.61;81.07;101990.25;5036902;28;20034;-79
2021/03/18 11:02:28;;;;;;;18.00;9.38;;;;;;;7.57;80.65;101979.72;5019903;28;20037;-80
2021/03/18 11:05:00;;;;;;;25.42;9.45;;;;;;;7.65;80.27;101977.69;5013150;28;20038;-79
2021/03/18 11:07:28;;;;;;;16.10;8.30;;;;;;;7.74;79.58;101977.38;5021207;28;20045;-80
2021/03/18 11:10:28;;;;;;;19.70;8.98;;;;;;;7.81;80.20;101978.94;5020882;28;20196;-80
2021/03/18 11:12:59;;;;;;;13.75;6.63;;;;;;;7.91;79.72;101980.38;5017900;28;20058;-79
2021/03/18 11:15:26;;;;;;;14.32;5.28;;;;;;;7.78;77.44;101978.16;5005129;28;20053;-79
2021/03/18 11:18:06;;;;;;;11.52;5.38;;;;;;;7.83;77.02;101966.41;5019093;28;20034;-79
2021/03/18 11:20:40;;;;;;;9.55;3.63;;;;;;;7.71;76.94;101972.16;5032366;28;20030;-78
2021/03/18 11:23:06;;;;;;;10.95;4.25;;;;;;;7.61;75.96;101955.53;4995806;28;20509;-80
2021/03/18 11:25:32;;;;;;;9.45;4.70;;;;;;;7.57;78.48;101958.34;5015041;28;20030;-79
2021/03/18 11:27:58;;;;;;;21.75;9.85;;;;;;;7.53;78.22;101962.06;5001310;28;20025;-79